Time;durP1;ratioP1;P1;durP2;ratioP2;P2;SDS_P1;SDS_P2;PMS_P1;PMS_P2;Temp;Humidity;BMP_temperature;BMP_pressure;BME280_temperature;BME280_humidity;BME280_pressure;Samples;Min_cycle;Max_cycle;Signal;HPM_P1;HPM_P2
2021/06/07 00:01:55;;;;;;;5.42;3.67;;;;;;;18.41;58.66;99053.88;1701361;81;21021;-56
2021/06/07 00:04:23;;;;;;;4.10;3.33;;;;;;;18.40;58.69;99053.61;1703584;81;21029;-56
2021/06/07 00:06:49;;;;;;;6.40;3.60;;;;;;;18.40;58.66;99043.66;1701626;81;20930;-56
2021/06/07 00:09:16;;;;;;;8.90;3.40;;;;;;;18.40;58.71;99042.84;1701379;81;21484;-55
2021/06/07 00:11:47;;;;;;;6.80;3.77;;;;;;;18.40;58.73;99049.05;1701348;81;21998;-56
2021/06/07 00:14:17;;;;;;;4.47;3.40;;;;;;;18.38;58.84;99051.13;1702630;81;21018;-56
2021/06/07 00:16:44;;;;;;;4.87;3.12;;;;;;;18.35;58.94;99051.58;1701349;81;21006;-56
2021/06/07 00:19:14;;;;;;;7.42;3.85;;;;;;;18.31;59.07;99050.94;1701442;81;20982;-56
2021/06/07 00:21:42;;;;;;;5.65;3.42;;;;;;;18.21;59.27;99052.02;1701390;81;20889;-56
2021/06/07 00:24:10;;;;;;;5.65;3.90;;;;;;;18.12;59.54;99056.90;1703177;81;20867;-56
2021/06/07 00:26:37;;;;;;;10.15;3.87;;;;;;;18.10;59.76;99054.97;1706302;81;21551;-55
2021/06/07 00:29:06;;;;;;;7.10;3.87;;;;;;;18.09;59.91;99052.00;1701322;81;20973;-56
2021/06/07 00:31:34;;;;;;;8.73;4.33;;;;;;;18.08;60.03;99050.34;1698585;81;21123;-56
2021/06/07 00:34:01;;;;;;;6.12;4.33;;;;;;;18.08;60.09;99058.94;1689123;84;21006;-56
2021/06/07 00:36:27;;;;;;;8.55;4.90;;;;;;;18.05;60.23;99046.76;1677986;85;21163;-56
2021/06/07 00:38:53;;;;;;;7.75;3.90;;;;;;;18.01;60.30;99044.24;1678032;85;21074;-56
2021/06/07 00:41:21;;;;;;;9.35;4.50;;;;;;;17.93;60.54;99049.94;1678210;85;21043;-56
2021/06/07 00:43:58;;;;;;;7.70;4.15;;;;;;;17.89;60.74;99051.42;1673741;85;21560;-56
2021/06/07 00:46:25;;;;;;;6.95;4.37;;;;;;;17.87;60.82;99054.88;1678056;85;21011;-56
2021/06/07 00:48:52;;;;;;;7.05;4.47;;;;;;;17.89;60.87;99055.47;1677913;85;21311;-55
2021/06/07 00:51:19;;;;;;;6.35;4.60;;;;;;;17.90;60.95;99049.05;1677869;85;20959;-55
2021/06/07 00:53:47;;;;;;;8.18;4.33;;;;;;;17.90;60.92;99047.70;1675929;85;20928;-56
2021/06/07 00:56:14;;;;;;;7.55;4.90;;;;;;;17.91;60.99;99049.88;1677996;85;21577;-56
2021/06/07 00:58:46;;;;;;;7.05;5.45;;;;;;;17.90;61.02;99050.39;1658718;83;20962;-56
2021/06/07 01:01:22;;;;;;;6.22;4.85;;;;;;;17.89;61.16;99053.59;1701648;81;21115;-56
2021/06/07 01:03:53;;;;;;;6.80;4.08;;;;;;;17.89;61.20;99058.16;1705199;81;21128;-56
2021/06/07 01:06:19;;;;;;;6.40;4.65;;;;;;;17.88;61.27;99046.56;1701549;81;21417;-56
2021/06/07 01:08:46;;;;;;;5.30;4.17;;;;;;;17.88;61.32;99049.25;1701331;81;21066;-56
2021/06/07 01:11:12;;;;;;;6.33;4.25;;;;;;;17.88;61.35;99047.11;1701630;81;21045;-56
2021/06/07 01:13:41;;;;;;;7.70;4.12;;;;;;;17.88;61.36;99049.80;1703215;81;20896;-56
2021/06/07 01:16:07;;;;;;;5.50;3.90;;;;;;;17.87;61.42;99050.84;1669415;81;20946;-56
2021/06/07 01:18:34;;;;;;;4.67;3.90;;;;;;;17.88;61.46;99051.15;1661492;83;21020;-56
2021/06/07 01:21:06;;;;;;;4.92;3.92;;;;;;;17.82;61.64;99044.80;1643395;85;21062;-56
2021/06/07 01:23:33;;;;;;;6.47;4.25;;;;;;;17.79;61.84;99045.77;1663573;83;21048;-56
2021/06/07 01:26:01;;;;;;;5.83;4.53;;;;;;;17.79;61.89;99043.08;1662154;83;21317;-56
2021/06/07 01:28:29;;;;;;;7.97;4.97;;;;;;;17.76;61.93;99044.88;1642308;85;20988;-56
2021/06/07 01:30:56;;;;;;;7.33;5.50;;;;;;;17.69;62.27;99048.18;1672013;83;20961;-56
2021/06/07 01:33:24;;;;;;;7.05;4.85;;;;;;;17.62;62.45;99046.93;1667848;85;20994;-55
2021/06/07 01:35:54;;;;;;;8.23;4.78;;;;;;;17.63;62.58;99044.52;1639616;86;21019;-54
2021/06/07 01:38:21;;;;;;;7.67;5.33;;;;;;;17.62;62.66;99038.86;1656616;86;21154;-55
2021/06/07 01:40:51;;;;;;;8.78;5.50;;;;;;;17.64;62.67;99046.17;1656139;86;21085;-54
2021/06/07 01:43:17;;;;;;;9.28;5.75;;;;;;;17.46;63.03;99053.39;1654748;86;21039;-55
2021/06/07 01:45:45;;;;;;;6.80;4.50;;;;;;;17.17;63.77;99049.58;1656548;86;20990;-55
2021/06/07 01:48:13;;;;;;;9.63;4.65;;;;;;;17.04;64.25;99047.02;1656250;86;20910;-55
2021/06/07 01:50:39;;;;;;;5.45;4.72;;;;;;;16.98;64.64;99043.87;1656253;86;21163;-55
2021/06/07 01:53:06;;;;;;;7.75;4.95;;;;;;;16.97;64.88;99044.93;1654918;86;21018;-55
2021/06/07 01:55:37;;;;;;;4.80;4.25;;;;;;;17.00;64.95;99045.80;1657825;86;21135;-56
2021/06/07 01:58:05;;;;;;;5.80;4.85;;;;;;;17.04;64.96;99053.22;1647295;85;21543;-56
2021/06/07 02:00:40;;;;;;;7.10;4.30;;;;;;;17.10;64.88;99052.86;1647524;86;21045;-55
2021/06/07 02:03:07;;;;;;;11.03;5.28;;;;;;;17.15;64.79;99055.16;1646761;85;21130;-56
2021/06/07 02:05:37;;;;;;;5.17;4.55;;;;;;;17.16;64.66;99054.13;1639142;85;21050;-55
2021/06/07 02:08:08;;;;;;;6.53;4.83;;;;;;;17.18;64.67;99056.06;1650425;85;21549;-55
2021/06/07 02:10:39;;;;;;;8.88;5.08;;;;;;;17.19;64.59;99056.37;1677192;83;21026;-57
2021/06/07 02:13:06;;;;;;;5.95;4.95;;;;;;;17.11;64.80;99052.62;1667461;83;21004;-57
2021/06/07 02:15:34;;;;;;;5.58;4.92;;;;;;;17.08;64.93;99058.44;1689444;81;21493;-57
2021/06/07 02:18:08;;;;;;;6.17;5.37;;;;;;;17.08;64.96;99058.44;1701265;81;21056;-57
2021/06/07 02:20:35;;;;;;;11.95;5.97;;;;;;;17.08;65.03;99055.75;1701461;81;21480;-57
2021/06/07 02:23:01;;;;;;;11.57;6.33;;;;;;;17.11;64.98;99060.69;1703749;81;21088;-57
2021/06/07 02:25:27;;;;;;;6.90;5.25;;;;;;;17.15;64.97;99061.08;1701480;81;20942;-56
2021/06/07 02:27:55;;;;;;;11.95;6.12;;;;;;;17.17;64.91;99061.16;1701379;81;21043;-56
2021/06/07 02:30:28;;;;;;;11.35;5.78;;;;;;;17.15;64.92;99059.19;1700603;81;20967;-57
2021/06/07 02:32:56;;;;;;;12.15;6.92;;;;;;;17.20;64.89;99062.58;1676384;84;21010;-56
2021/06/07 02:35:23;;;;;;;9.95;7.17;;;;;;;17.20;64.90;99059.38;1683368;85;21061;-57
2021/06/07 02:37:52;;;;;;;10.18;7.20;;;;;;;17.23;64.84;99061.59;1683502;85;20960;-56
2021/06/07 02:40:23;;;;;;;8.95;6.28;;;;;;;17.25;64.79;99060.04;1683461;85;20872;-57
2021/06/07 02:42:50;;;;;;;12.35;6.95;;;;;;;17.28;64.70;99063.08;1681372;85;20904;-56
2021/06/07 02:45:18;;;;;;;8.00;5.40;;;;;;;17.34;64.64;99061.92;1664490;83;21005;-56
2021/06/07 02:47:46;;;;;;;8.43;5.80;;;;;;;17.44;64.41;99059.53;1662947;85;21030;-56
2021/06/07 02:50:13;;;;;;;12.80;5.75;;;;;;;17.52;64.16;99055.99;1666580;83;21043;-55
2021/06/07 02:52:49;;;;;;;8.63;6.03;;;;;;;17.60;63.93;99055.73;1679584;85;21843;-55
2021/06/07 02:55:29;;;;;;;9.10;5.30;;;;;;;17.70;63.65;99059.25;1683308;85;21014;-55
2021/06/07 02:57:56;;;;;;;6.22;5.10;;;;;;;17.78;63.41;99062.98;1698472;84;21018;-56
2021/06/07 03:00:32;;;;;;;7.00;5.65;;;;;;;17.89;63.18;99060.84;1683582;85;20971;-56
2021/06/07 03:02:59;;;;;;;;;;;;;;;18.01;62.86;99063.59;1683545;85;20904;-55
2021/06/07 03:05:27;;;;;;;9.05;5.05;;;;;;;18.14;62.53;99064.24;1683442;85;21156;-56
2021/06/07 03:07:53;;;;;;;7.62;4.53;;;;;;;18.28;62.15;99065.68;1683271;85;20998;-56
2021/06/07 03:10:19;;;;;;;8.60;5.58;;;;;;;18.39;61.98;99070.28;1683526;85;21537;-56
2021/06/07 03:12:46;;;;;;;10.55;5.50;;;;;;;18.55;61.68;99063.45;1680137;85;21019;-56
2021/06/07 03:15:14;;;;;;;7.78;5.60;;;;;;;18.74;61.06;99057.45;1682306;85;20990;-56
2021/06/07 03:17:41;;;;;;;10.13;6.25;;;;;;;18.99;60.60;99062.91;1678129;85;21136;-56
2021/06/07 03:20:10;;;;;;;11.73;6.85;;;;;;;19.37;59.86;99057.04;1678097;85;20876;-56
2021/06/07 03:22:37;;;;;;;12.23;6.85;;;;;;;19.75;58.84;99063.25;1670261;83;21051;-56
2021/06/07 03:25:06;;;;;;;11.25;6.95;;;;;;;20.09;57.71;99062.83;1735543;81;21042;-56
2021/06/07 03:27:33;;;;;;;9.50;6.92;;;;;;;20.35;56.56;99066.84;1728785;83;21091;-56
2021/06/07 03:30:00;;;;;;;11.40;7.03;;;;;;;20.50;55.96;99069.81;1723537;83;21138;-56
2021/06/07 03:32:26;;;;;;;7.62;6.17;;;;;;;20.67;55.55;99076.89;1723444;83;20950;-56
2021/06/07 03:34:53;;;;;;;12.37;6.67;;;;;;;20.87;55.07;99077.75;1729321;83;21057;-56
2021/06/07 03:37:19;;;;;;;10.40;6.28;;;;;;;21.11;54.42;99078.42;1721807;83;20945;-56
2021/06/07 03:39:45;;;;;;;10.85;6.10;;;;;;;21.37;53.84;99076.38;1728731;83;21583;-56
2021/06/07 03:42:12;;;;;;;9.20;5.83;;;;;;;21.63;52.88;99070.23;1720775;83;21115;-56
2021/06/07 03:44:38;;;;;;;8.60;6.03;;;;;;;21.84;52.20;99065.89;1727311;83;21062;-56
2021/06/07 03:47:05;;;;;;;10.30;6.33;;;;;;;22.12;51.51;99062.45;1728562;83;21519;-56
2021/06/07 03:49:31;;;;;;;8.33;5.80;;;;;;;22.40;50.90;99071.38;1722996;83;20976;-57
2021/06/07 03:51:58;;;;;;;7.72;5.65;;;;;;;22.71;50.27;99068.73;1728516;83;21073;-56
2021/06/07 03:54:25;;;;;;;6.53;4.78;;;;;;;23.06;49.18;99070.09;1705950;81;21162;-56
2021/06/07 03:56:52;;;;;;;7.83;4.40;;;;;;;23.30;48.09;99065.38;1714267;83;21057;-56
2021/06/07 03:59:19;;;;;;;5.70;4.17;;;;;;;23.41;47.71;99068.18;1727373;81;21087;-56
2021/06/07 04:01:47;;;;;;;6.50;4.22;;;;;;;23.45;47.40;99063.31;1727185;81;21519;-56
2021/06/07 04:04:13;;;;;;;6.85;4.28;;;;;;;23.46;47.19;99066.84;1724432;81;21105;-56
2021/06/07 04:06:39;;;;;;;4.78;4.20;;;;;;;23.43;47.10;99074.98;1727573;81;21157;-56
2021/06/07 04:09:07;;;;;;;5.42;4.05;;;;;;;23.28;47.63;99083.00;1722596;81;21900;-56
2021/06/07 04:11:33;;;;;;;8.80;6.25;;;;;;;23.28;47.63;99083.00;1706090;81;21159;-56
2021/06/07 04:14:01;;;;;;;6.33;5.72;;;;;;;23.25;47.63;99082.16;1716915;81;20935;-57
2021/06/07 04:16:27;;;;;;;10.55;6.80;;;;;;;23.16;47.46;99080.47;1721023;81;21515;-56
2021/06/07 04:18:54;;;;;;;6.42;5.50;;;;;;;23.00;47.79;99085.50;1725979;81;21143;-56
2021/06/07 04:21:21;;;;;;;9.18;5.42;;;;;;;23.14;47.86;99081.81;1705734;81;21065;-58
2021/06/07 04:23:47;;;;;;;6.90;5.42;;;;;;;23.27;47.80;99083.54;1713279;81;21532;-56
2021/06/07 04:26:15;;;;;;;8.93;8.03;;;;;;;23.43;47.38;99088.55;1726922;81;21046;-56
2021/06/07 04:28:42;;;;;;;10.43;9.43;;;;;;;23.44;47.10;99079.31;1717242;81;21515;-55
2021/06/07 04:31:08;;;;;;;9.15;8.23;;;;;;;23.44;47.11;99088.02;1710356;81;21217;-60
2021/06/07 04:33:34;;;;;;;10.30;7.30;;;;;;;23.40;47.06;99088.25;1723469;83;21002;-56
2021/06/07 04:36:01;;;;;;;9.90;6.20;;;;;;;23.39;47.14;99087.98;1730968;82;21406;-56
2021/06/07 04:38:27;;;;;;;10.30;6.35;;;;;;;23.41;47.20;99089.89;1730121;83;21018;-56
2021/06/07 04:40:56;;;;;;;15.40;7.00;;;;;;;23.45;47.12;99090.98;1718937;83;21006;-60
2021/06/07 04:43:23;;;;;;;9.88;6.55;;;;;;;23.38;47.16;99093.95;1693201;84;21153;-59
2021/06/07 04:45:49;;;;;;;9.60;6.35;;;;;;;23.30;47.19;99095.23;1678143;85;21441;-62
2021/06/07 04:48:15;;;;;;;11.05;8.25;;;;;;;23.40;47.21;99091.78;1678189;85;20927;-65
2021/06/07 04:50:42;;;;;;;9.78;7.97;;;;;;;23.40;47.21;99091.78;1728449;81;20958;-61
2021/06/07 04:53:10;;;;;;;9.15;6.72;;;;;;;23.84;46.66;99086.31;1730102;83;21448;-60
2021/06/07 04:55:40;;;;;;;12.95;6.95;;;;;;;24.38;45.80;99090.84;1729527;83;21183;-59
2021/06/07 04:58:13;;;;;;;8.88;7.25;;;;;;;24.79;44.83;99093.66;1730547;83;21002;-60
2021/06/07 05:00:42;;;;;;;11.12;7.37;;;;;;;25.27;43.96;99094.97;1730309;81;21500;-65
2021/06/07 05:03:08;;;;;;;10.28;7.58;;;;;;;25.55;43.15;99099.88;1730891;83;21006;-62
2021/06/07 05:05:36;;;;;;;14.25;7.92;;;;;;;25.89;42.53;99093.22;1730506;83;20997;-64
2021/06/07 05:08:03;;;;;;;11.25;7.42;;;;;;;26.03;42.05;99086.87;1709800;81;21352;-62
2021/06/07 05:10:29;;;;;;;11.65;7.20;;;;;;;26.13;41.68;99090.94;1721268;83;20998;-61
2021/06/07 05:12:56;;;;;;;9.65;6.78;;;;;;;26.34;41.43;99086.19;1720063;81;21046;-61
2021/06/07 05:15:22;;;;;;;7.97;5.65;;;;;;;26.63;40.71;99088.45;1727483;81;20947;-62
2021/06/07 05:17:49;;;;;;;10.70;6.17;;;;;;;26.76;40.39;99089.17;1692356;82;21127;-63
2021/06/07 05:20:20;;;;;;;11.88;5.67;;;;;;;26.75;40.20;99096.30;1689914;83;21158;-64
2021/06/07 05:22:47;;;;;;;5.33;4.78;;;;;;;26.91;39.99;99095.91;1658801;83;21014;-59
2021/06/07 05:25:16;;;;;;;12.60;5.37;;;;;;;26.97;39.62;99095.31;1683652;85;21113;-64
2021/06/07 05:27:42;;;;;;;10.32;6.40;;;;;;;26.98;39.79;99094.77;1684891;85;20983;-60
2021/06/07 05:30:10;;;;;;;7.35;5.17;;;;;;;27.10;39.56;99091.92;1656541;85;20906;-63
2021/06/07 05:32:37;;;;;;;8.50;5.25;;;;;;;27.37;39.38;99084.57;1684033;85;21150;-62
2021/06/07 05:35:06;;;;;;;7.00;3.77;;;;;;;27.87;38.85;99083.22;1682074;83;21378;-60
2021/06/07 05:37:35;;;;;;;6.03;3.90;;;;;;;28.61;37.92;99075.63;1652660;85;21326;-60
2021/06/07 05:40:04;;;;;;;5.97;3.72;;;;;;;29.87;36.25;99076.18;1679427;85;21074;-61
2021/06/07 05:42:30;;;;;;;5.53;3.40;;;;;;;30.67;34.59;99074.13;1675638;85;21115;-64
2021/06/07 05:44:56;;;;;;;3.95;3.12;;;;;;;30.87;33.59;99075.03;1683491;85;21156;-63
2021/06/07 05:47:23;;;;;;;4.50;3.45;;;;;;;30.89;33.19;99074.97;1654033;86;21038;-63
2021/06/07 05:49:51;;;;;;;8.40;4.50;;;;;;;30.85;33.20;99069.83;1685589;85;21012;-62
2021/06/07 05:52:18;;;;;;;6.28;4.78;;;;;;;30.77;33.05;99070.58;1684707;85;20963;-60
2021/06/07 05:54:44;;;;;;;5.37;3.75;;;;;;;30.72;33.20;99071.27;1686113;85;21011;-63
2021/06/07 05:57:10;;;;;;;6.97;3.72;;;;;;;30.61;33.15;99078.14;1654275;86;21533;-63
2021/06/07 05:59:37;;;;;;;10.18;4.12;;;;;;;30.48;33.41;99082.53;1680921;85;20964;-59
2021/06/07 06:02:06;;;;;;;5.92;4.17;;;;;;;30.58;33.15;99080.13;1683717;85;21706;-58
2021/06/07 06:04:33;;;;;;;5.25;4.40;;;;;;;30.52;33.26;99077.50;1682428;85;21575;-62
2021/06/07 06:07:01;;;;;;;8.68;5.78;;;;;;;30.69;32.94;99073.28;1656411;85;21059;-59
2021/06/07 06:09:28;;;;;;;13.95;6.42;;;;;;;30.90;32.88;99078.50;1685519;85;21215;-61
2021/06/07 06:11:56;;;;;;;11.03;7.53;;;;;;;31.13;32.60;99074.67;1686039;85;20955;-58
2021/06/07 06:14:25;;;;;;;12.63;6.97;;;;;;;31.51;32.19;99074.48;1680625;85;21142;-60
2021/06/07 06:16:52;;;;;;;9.83;6.35;;;;;;;31.91;31.51;99074.47;1649040;84;21085;-61
2021/06/07 06:19:19;;;;;;;15.88;6.33;;;;;;;32.22;31.17;99073.83;1667212;85;21034;-63
2021/06/07 06:21:45;;;;;;;13.62;8.03;;;;;;;32.61;30.70;99067.41;1674775;85;21069;-61
2021/06/07 06:24:12;;;;;;;18.10;9.70;;;;;;;32.92;30.44;99070.22;1676727;85;21493;-62
2021/06/07 06:26:39;;;;;;;17.92;10.25;;;;;;;33.33;29.55;99071.03;1676610;85;20983;-60
2021/06/07 06:29:06;;;;;;;20.70;11.45;;;;;;;33.51;29.27;99073.16;1692892;84;21097;-59
2021/06/07 06:31:34;;;;;;;21.00;13.18;;;;;;;33.84;29.01;99062.34;1684349;83;20999;-62
2021/06/07 06:34:01;;;;;;;23.42;12.98;;;;;;;34.38;28.34;99061.92;1702589;81;21138;-62
2021/06/07 06:36:29;;;;;;;29.15;12.80;;;;;;;34.84;27.91;99067.23;1701547;81;21018;-61
2021/06/07 06:38:56;;;;;;;22.55;10.82;;;;;;;35.40;27.48;99064.32;1701381;81;21491;-62
2021/06/07 06:41:22;;;;;;;16.82;8.23;;;;;;;35.85;26.86;99058.73;1701119;81;21049;-60
2021/06/07 06:43:49;;;;;;;13.15;7.70;;;;;;;36.00;26.36;99064.95;1700338;81;21100;-61
2021/06/07 06:46:16;;;;;;;10.82;7.40;;;;;;;36.07;25.97;99062.42;1700629;81;21165;-59
2021/06/07 06:48:42;;;;;;;13.05;7.75;;;;;;;36.04;25.71;99064.50;1701134;81;21068;-61
2021/06/07 06:51:11;;;;;;;15.83;8.50;;;;;;;36.02;25.90;99068.77;1701673;81;20934;-61
2021/06/07 06:53:37;;;;;;;20.15;11.95;;;;;;;36.22;25.83;99065.85;1701256;81;21037;-61
2021/06/07 06:56:06;;;;;;;20.12;10.95;;;;;;;36.42;25.30;99053.80;1701448;81;21060;-60
2021/06/07 06:58:32;;;;;;;18.15;9.80;;;;;;;36.50;25.28;99056.25;1710583;81;21161;-61
2021/06/07 07:00:59;;;;;;;13.35;7.75;;;;;;;36.73;25.29;99056.51;1672996;83;20962;-58
2021/06/07 07:03:25;;;;;;;10.98;6.53;;;;;;;36.98;24.66;99054.68;1650568;83;21548;-61
2021/06/07 07:05:55;;;;;;;13.80;7.80;;;;;;;36.96;24.42;99053.42;1649424;83;21635;-61
2021/06/07 07:08:21;;;;;;;11.93;7.80;;;;;;;37.08;24.31;99053.34;1700646;81;21016;-57
2021/06/07 07:10:49;;;;;;;12.78;7.62;;;;;;;37.22;24.29;99054.31;1700553;81;20898;-61
2021/06/07 07:13:16;;;;;;;12.78;7.22;;;;;;;37.39;24.06;99045.67;1700735;81;21046;-60
2021/06/07 07:15:45;;;;;;;14.13;8.10;;;;;;;37.82;23.78;99054.48;1700746;81;20989;-60
2021/06/07 07:18:11;;;;;;;13.25;8.05;;;;;;;38.28;23.42;99052.20;1688793;82;21025;-60
2021/06/07 07:20:39;;;;;;;17.07;7.92;;;;;;;38.64;23.12;99054.59;1687283;82;20997;-60
2021/06/07 07:23:06;;;;;;;16.60;6.47;;;;;;;39.10;22.65;99047.78;1669326;83;21174;-61
2021/06/07 07:25:33;;;;;;;7.17;4.83;;;;;;;39.48;22.03;99047.11;1687499;82;20918;-59
2021/06/07 07:27:59;;;;;;;13.00;5.35;;;;;;;39.64;21.46;99037.84;1687527;82;20957;-60
2021/06/07 07:30:27;;;;;;;6.00;3.67;;;;;;;39.61;21.34;99043.53;1687386;82;21049;-61
2021/06/07 07:32:54;;;;;;;6.03;2.95;;;;;;;39.74;21.32;99042.77;1677024;84;21565;-58
2021/06/07 07:35:22;;;;;;;5.60;2.70;;;;;;;39.94;20.99;99041.52;1716102;83;21165;-63
2021/06/07 07:37:48;;;;;;;5.62;2.80;;;;;;;40.13;20.66;99044.19;1716413;83;20922;-60
2021/06/07 07:40:17;;;;;;;7.03;2.70;;;;;;;40.34;20.49;99043.68;1716334;83;20961;-60
2021/06/07 07:42:44;;;;;;;8.73;2.77;;;;;;;40.74;20.21;99039.66;1648867;86;21094;-61
2021/06/07 07:45:13;;;;;;;4.87;2.35;;;;;;;41.04;19.89;99039.01;1677008;83;21265;-61
2021/06/07 07:47:39;;;;;;;4.08;3.20;;;;;;;41.16;19.77;99037.94;1685555;85;21170;-62
2021/06/07 07:50:10;;;;;;;;;;;;;;;41.40;19.70;99038.00;1688478;85;38571;-62
2021/06/07 07:52:41;;;;;;;5.20;2.50;;;;;;;41.66;19.17;99038.63;1685921;85;20129;-60
2021/06/07 07:55:06;;;;;;;5.83;2.37;;;;;;;41.71;18.90;99037.45;1686311;83;21078;-61
2021/06/07 07:57:33;;;;;;;4.72;1.72;;;;;;;41.49;19.17;99044.85;1686007;85;21169;-58
2021/06/07 07:59:59;;;;;;;2.72;2.12;;;;;;;41.55;19.14;99040.53;1686158;85;21441;-58
2021/06/07 08:02:25;;;;;;;5.37;2.12;;;;;;;41.51;19.03;99047.27;1686023;85;20912;-60
2021/06/07 08:04:52;;;;;;;7.45;2.00;;;;;;;41.37;18.90;99039.57;1686144;85;20916;-62
2021/06/07 08:07:19;;;;;;;3.98;2.10;;;;;;;41.17;18.99;99043.13;1705043;83;20970;-61
2021/06/07 08:09:45;;;;;;;9.08;2.27;;;;;;;41.02;19.04;99039.18;1660062;85;21541;-59
2021/06/07 08:12:11;;;;;;;5.75;2.05;;;;;;;40.78;19.07;99038.31;1674856;85;21136;-60
2021/06/07 08:14:38;;;;;;;3.83;1.82;;;;;;;40.58;19.40;99037.66;1686064;85;20986;-60
2021/06/07 08:17:04;;;;;;;2.17;1.92;;;;;;;40.48;19.58;99036.36;1685251;85;21071;-62
2021/06/07 08:19:31;;;;;;;5.08;1.90;;;;;;;40.53;19.57;99036.60;1693139;84;21449;-61
2021/06/07 08:21:57;;;;;;;5.42;2.00;;;;;;;40.56;19.46;99035.27;1667537;83;21039;-59
2021/06/07 08:24:24;;;;;;;2.75;1.87;;;;;;;40.53;19.59;99036.60;1669497;85;21958;-62
2021/06/07 08:26:50;;;;;;;2.35;1.42;;;;;;;40.56;19.63;99034.45;1677980;85;21430;-61
2021/06/07 08:29:17;;;;;;;7.25;2.10;;;;;;;40.39;19.48;99029.41;1678052;85;21054;-60
2021/06/07 08:31:43;;;;;;;2.45;1.98;;;;;;;40.18;19.77;99037.52;1658549;85;21117;-59
2021/06/07 08:34:10;;;;;;;3.58;2.15;;;;;;;39.96;19.68;99035.78;1677988;85;21050;-61
2021/06/07 08:36:36;;;;;;;4.53;1.72;;;;;;;39.68;19.94;99031.17;1678137;85;21227;-59
2021/06/07 08:39:05;;;;;;;3.00;1.72;;;;;;;39.57;20.16;99037.12;1677911;85;20904;-62
2021/06/07 08:41:32;;;;;;;8.13;1.95;;;;;;;39.65;20.24;99022.76;1677885;85;21003;-59
2021/06/07 08:43:59;;;;;;;3.70;1.72;;;;;;;39.70;20.12;99032.18;1677792;85;20983;-61
2021/06/07 08:46:25;;;;;;;4.53;1.98;;;;;;;39.74;19.75;99034.42;1678069;85;21406;-59
2021/06/07 08:48:52;;;;;;;6.15;1.98;;;;;;;39.73;19.74;99034.22;1677805;85;21012;-58
2021/06/07 08:51:18;;;;;;;5.35;1.72;;;;;;;39.84;19.86;99033.80;1677888;85;20908;-59
2021/06/07 08:53:47;;;;;;;6.55;1.98;;;;;;;40.00;19.54;99027.46;1677884;85;21034;-58
2021/06/07 08:56:15;;;;;;;3.52;1.75;;;;;;;40.20;19.30;99022.61;1678032;85;20955;-62
2021/06/07 08:58:42;;;;;;;3.75;1.87;;;;;;;40.23;19.37;99029.61;1677991;85;21576;-63
2021/06/07 09:01:09;;;;;;;4.58;1.60;;;;;;;39.93;19.51;99029.56;1658576;83;21171;-62
2021/06/07 09:03:36;;;;;;;4.50;1.80;;;;;;;39.48;19.09;99031.80;1677812;85;20963;-59
2021/06/07 09:06:04;;;;;;;4.65;2.02;;;;;;;38.95;19.70;99032.01;1677765;85;21639;-61
2021/06/07 09:08:39;;;;;;;1.92;1.60;;;;;;;38.70;19.86;99034.26;1677933;85;20969;-60
2021/06/07 09:11:13;;;;;;;8.23;1.70;;;;;;;38.11;20.32;99030.41;1677874;85;20975;-62
2021/06/07 09:13:39;;;;;;;1.85;1.50;;;;;;;37.42;20.99;99027.73;1730650;83;21164;-60
2021/06/07 09:16:06;;;;;;;6.20;1.50;;;;;;;36.98;21.41;99028.34;1730446;83;20965;-63
2021/06/07 09:18:37;;;;;;;3.90;1.50;;;;;;;36.69;21.54;99032.03;1720207;82;20930;-60
2021/06/07 09:21:07;;;;;;;3.12;1.62;;;;;;;36.39;21.66;99028.78;1715978;83;20993;-61
2021/06/07 09:23:47;;;;;;;5.00;1.60;;;;;;;36.04;21.95;99029.89;1657801;86;21093;-59
2021/06/07 09:26:35;;;;;;;2.80;1.50;;;;;;;35.57;21.96;99029.55;1686956;85;21171;-62
2021/06/07 09:29:12;;;;;;;3.58;1.77;;;;;;;35.16;22.08;99026.37;1686140;85;20907;-58
2021/06/07 09:31:44;;;;;;;3.10;1.98;;;;;;;35.09;22.30;99027.52;1667543;85;21036;-62
2021/06/07 09:34:12;;;;;;;2.85;2.25;;;;;;;35.09;22.59;99026.14;1666983;83;21005;-59
2021/06/07 09:36:40;;;;;;;6.00;1.67;;;;;;;35.02;22.70;99020.88;1716439;83;20962;-59
2021/06/07 09:39:20;;;;;;;3.02;1.45;;;;;;;34.79;22.67;99016.91;1716533;83;21140;-59
2021/06/07 09:41:54;;;;;;;5.00;1.42;;;;;;;34.47;23.02;99025.41;1697827;82;20945;-59
2021/06/07 09:44:28;;;;;;;2.08;1.40;;;;;;;34.13;23.58;99017.61;1696331;83;20871;-59
2021/06/07 09:47:13;;;;;;;3.20;1.47;;;;;;;33.72;24.28;99024.98;1658072;86;21528;-61
2021/06/07 09:49:45;;;;;;;4.65;2.65;;;;;;;33.28;25.14;99030.43;1686344;85;21027;-62
2021/06/07 09:52:18;;;;;;;3.60;2.05;;;;;;;33.00;25.54;99029.20;1684895;85;21164;-63
2021/06/07 09:55:09;;;;;;;2.80;1.50;;;;;;;32.72;25.95;99029.56;1686201;85;20955;-60
2021/06/07 09:58:00;;;;;;;2.83;1.75;;;;;;;32.48;26.24;99032.00;1657619;85;21010;-59
2021/06/07 10:00:47;;;;;;;4.15;2.12;;;;;;;32.31;26.61;99028.67;1681359;85;21084;-61
2021/06/07 10:03:20;;;;;;;4.95;1.30;;;;;;;32.14;27.08;99027.85;1656318;85;21052;-59
2021/06/07 10:05:52;;;;;;;5.53;1.80;;;;;;;31.95;27.22;99025.36;1686554;85;21152;-59
2021/06/07 10:08:19;;;;;;;6.70;2.67;;;;;;;31.82;27.57;99024.11;1657533;86;21457;-61
2021/06/07 10:10:46;;;;;;;3.25;1.55;;;;;;;31.85;27.96;99015.23;1685259;85;21104;-62
2021/06/07 10:13:13;;;;;;;6.45;1.92;;;;;;;31.85;27.62;99013.85;1684833;85;22306;-61
2021/06/07 10:15:42;;;;;;;2.65;1.50;;;;;;;31.72;27.53;99016.42;1681939;85;21092;-61
2021/06/07 10:18:16;;;;;;;3.45;1.65;;;;;;;31.60;27.75;99013.46;1676167;83;21167;-63
2021/06/07 10:20:46;;;;;;;2.80;1.60;;;;;;;31.50;28.22;99005.51;1657235;85;21036;-63
2021/06/07 10:23:25;;;;;;;9.10;2.75;;;;;;;31.44;27.96;99005.40;1679827;83;20944;-60
2021/06/07 10:25:54;;;;;;;12.68;3.87;;;;;;;31.46;28.20;99007.28;1682801;85;21027;-60
2021/06/07 10:28:36;;;;;;;10.35;4.45;;;;;;;31.43;28.38;99009.81;1685483;85;21485;-62
2021/06/07 10:31:14;;;;;;;11.33;4.03;;;;;;;31.34;28.27;99007.03;1680691;85;21156;-62
2021/06/07 10:33:42;;;;;;;7.67;3.75;;;;;;;31.24;28.50;99008.69;1654862;86;20974;-63
2021/06/07 10:36:28;;;;;;;4.90;3.47;;;;;;;31.20;28.97;99007.72;1659878;85;21084;-61
2021/06/07 10:39:19;;;;;;;8.85;3.85;;;;;;;31.18;28.98;99009.39;1685503;85;21078;-60
2021/06/07 10:41:50;;;;;;;8.35;3.75;;;;;;;31.16;28.89;99010.27;1647390;85;21022;-62
2021/06/07 10:44:38;;;;;;;6.05;3.80;;;;;;;31.16;28.65;99010.27;1666807;85;21179;-59
2021/06/07 10:47:07;;;;;;;11.43;7.42;;;;;;;31.17;28.52;99008.34;1654484;85;21066;-61
2021/06/07 10:49:40;;;;;;;8.30;6.55;;;;;;;31.26;28.49;98999.56;1683614;85;21035;-57
2021/06/07 10:52:26;;;;;;;7.62;4.78;;;;;;;31.36;28.29;98996.55;1684987;85;22266;-61
2021/06/07 10:55:08;;;;;;;10.70;4.58;;;;;;;31.39;28.23;98993.14;1656056;86;21121;-60
2021/06/07 10:57:57;;;;;;;4.72;2.92;;;;;;;31.45;28.44;98988.31;1682670;85;21192;-61
2021/06/07 11:00:37;;;;;;;5.55;3.98;;;;;;;31.42;28.44;98993.89;1673239;83;20987;-63
2021/06/07 11:03:26;;;;;;;3.67;2.55;;;;;;;31.40;28.13;98985.72;1684997;85;21049;-60
2021/06/07 11:06:02;;;;;;;4.72;2.15;;;;;;;31.36;28.37;98984.75;1683049;85;21002;-60
2021/06/07 11:08:35;;;;;;;3.02;1.85;;;;;;;31.38;28.70;98987.98;1685859;85;20991;-59
2021/06/07 11:11:16;;;;;;;3.08;1.62;;;;;;;31.46;28.81;98972.12;1636372;85;21219;-60
2021/06/07 11:14:01;;;;;;;8.03;1.70;;;;;;;31.48;27.55;98975.34;1670920;83;21007;-61
2021/06/07 11:16:46;;;;;;;9.63;1.83;;;;;;;31.45;27.28;98974.58;1652714;85;21536;-60
2021/06/07 11:19:15;;;;;;;5.22;1.70;;;;;;;31.54;27.53;98966.66;1663328;83;21212;-60
2021/06/07 11:21:52;;;;;;;5.47;2.15;;;;;;;31.66;27.83;98964.08;1701139;81;20989;-60
2021/06/07 11:24:39;;;;;;;11.35;1.60;;;;;;;31.83;28.14;98984.50;1700860;81;21173;-59
2021/06/07 11:27:05;;;;;;;3.40;1.77;;;;;;;31.88;27.86;98986.53;1700337;81;20946;-60
2021/06/07 11:29:34;;;;;;;8.88;1.80;;;;;;;31.92;27.81;98983.92;1705735;81;21089;-61
2021/06/07 11:32:11;;;;;;;4.08;1.90;;;;;;;31.86;27.49;98994.86;1700854;83;21544;-61
2021/06/07 11:34:45;;;;;;;7.05;2.30;;;;;;;31.81;27.12;98993.05;1730727;83;21069;-59
2021/06/07 11:37:16;;;;;;;5.72;1.90;;;;;;;31.74;27.89;98997.66;1730255;82;21172;-59
2021/06/07 11:39:47;;;;;;;7.85;2.35;;;;;;;31.57;28.43;99000.34;1730230;83;20997;-59
2021/06/07 11:42:19;;;;;;;6.00;2.10;;;;;;;31.20;28.50;98995.91;1727915;83;21013;-58